createdAt,value
2023-02-03T00:00:56.128Z,11.24
2023-02-03T00:03:24.424Z,10.78
2023-02-03T00:05:52.880Z,11.07
2023-02-03T00:08:21.842Z,10.89
2023-02-03T00:10:50.039Z,10.93
2023-02-03T00:13:17.884Z,11.43
2023-02-03T00:15:45.982Z,10.92
2023-02-03T00:18:16.359Z,11.21
2023-02-03T00:20:47.740Z,11.17
2023-02-03T00:23:16.111Z,11.18
2023-02-03T00:25:45.071Z,10.91
2023-02-03T00:28:13.619Z,11.15
2023-02-03T00:30:41.534Z,11.25
2023-02-03T00:33:09.532Z,11.43
2023-02-03T00:35:40.819Z,11.24
2023-02-03T00:38:08.869Z,11.36
2023-02-03T00:40:36.934Z,11.34
2023-02-03T00:43:07.419Z,11.51
2023-02-03T00:45:35.439Z,11.31
2023-02-03T00:48:04.080Z,11.18
2023-02-03T00:50:32.138Z,11.29
2023-02-03T00:53:02.002Z,11.49
2023-02-03T00:55:30.233Z,11.27
2023-02-03T00:57:58.061Z,11.21
2023-02-03T01:00:26.116Z,11.39
2023-02-03T01:02:54.712Z,11.18
2023-02-03T01:05:22.823Z,10.93
2023-02-03T01:07:51.036Z,10.76
2023-02-03T01:10:20.897Z,10.75
2023-02-03T01:12:49.260Z,10.79
2023-02-03T01:15:19.061Z,10.71
2023-02-03T01:17:47.297Z,10.87
2023-02-03T01:20:17.041Z,10.81
2023-02-03T01:22:45.321Z,10.77
2023-02-03T01:25:13.147Z,10.92
2023-02-03T01:27:42.966Z,10.80
2023-02-03T01:30:12.660Z,11.20
2023-02-03T01:32:41.538Z,11.13
2023-02-03T01:35:10.968Z,11.09
2023-02-03T01:37:39.472Z,10.93
2023-02-03T01:40:08.832Z,10.94
2023-02-03T01:42:37.196Z,10.98
2023-02-03T01:45:07.910Z,10.89
2023-02-03T01:47:41.334Z,10.63
2023-02-03T01:50:14.944Z,10.83
2023-02-03T01:52:48.272Z,10.84
2023-02-03T01:55:21.330Z,10.79
2023-02-03T01:57:54.422Z,10.87
2023-02-03T02:00:25.736Z,10.86
2023-02-03T02:03:03.066Z,11.01
2023-02-03T02:05:36.247Z,10.88
2023-02-03T02:08:07.685Z,10.76
2023-02-03T02:10:36.645Z,10.95
2023-02-03T02:13:07.317Z,10.81
2023-02-03T02:15:51.752Z,10.79
2023-02-03T02:18:44.232Z,10.66
2023-02-03T02:21:50.433Z,10.81
2023-02-03T02:25:04.935Z,10.85
2023-02-03T02:28:08.502Z,11.01
2023-02-03T02:30:57.852Z,10.99
2023-02-03T02:33:39.187Z,10.94
2023-02-03T02:36:16.169Z,11.05
2023-02-03T02:38:54.055Z,11.00
2023-02-03T02:41:27.545Z,11.04
2023-02-03T02:44:03.525Z,10.78
2023-02-03T02:46:37.532Z,10.96
2023-02-03T02:49:14.226Z,10.28
2023-02-03T02:51:46.569Z,10.97
2023-02-03T02:54:19.789Z,10.91
2023-02-03T02:56:54.177Z,10.96
2023-02-03T02:59:22.817Z,11.07
2023-02-03T03:02:00.904Z,10.98
2023-02-03T03:04:39.755Z,10.95
2023-02-03T03:07:15.050Z,10.87
2023-02-03T03:09:53.604Z,10.82
2023-02-03T03:12:26.311Z,11.19
2023-02-03T03:14:59.087Z,11.27
2023-02-03T03:17:31.600Z,10.74
2023-02-03T03:20:06.234Z,10.80
2023-02-03T03:22:40.028Z,11.15
2023-02-03T03:25:16.032Z,11.07
2023-02-03T03:27:50.331Z,11.10
2023-02-03T03:30:24.169Z,11.06
2023-02-03T03:32:53.004Z,10.83
2023-02-03T03:35:23.968Z,11.05
2023-02-03T03:38:00.033Z,11.05
2023-02-03T03:40:37.871Z,11.14
2023-02-03T03:43:12.836Z,11.03
2023-02-03T03:45:49.495Z,10.76
2023-02-03T03:48:22.296Z,10.93
2023-02-03T03:50:56.955Z,10.88
2023-02-03T03:53:27.313Z,10.84
2023-02-03T03:55:58.286Z,10.94
2023-02-03T03:58:31.464Z,11.00
2023-02-03T04:01:04.467Z,10.97
2023-02-03T04:03:37.146Z,11.08
2023-02-03T04:06:08.295Z,11.14
2023-02-03T04:08:37.460Z,11.01
2023-02-03T04:11:09.563Z,10.98
2023-02-03T04:13:38.143Z,11.18
2023-02-03T04:16:07.379Z,11.30
2023-02-03T04:18:36.092Z,11.15
2023-02-03T04:21:05.232Z,10.97
2023-02-03T04:23:43.834Z,11.05
2023-02-03T04:26:13.150Z,11.26
2023-02-03T04:28:43.492Z,10.98
2023-02-03T04:31:12.181Z,11.38
2023-02-03T04:36:36.913Z,11.05
2023-02-03T04:39:07.415Z,11.25
2023-02-03T04:41:35.926Z,11.16
2023-02-03T04:44:04.028Z,11.07
2023-02-03T04:46:32.557Z,10.97
2023-02-03T04:49:00.560Z,11.10
2023-02-03T04:51:28.675Z,11.20
2023-02-03T04:53:56.672Z,11.07
2023-02-03T04:56:26.188Z,11.14
2023-02-03T04:58:54.254Z,11.24
2023-02-03T05:01:22.190Z,10.91
2023-02-03T05:03:50.361Z,11.26
2023-02-03T05:06:18.581Z,10.90
2023-02-03T05:08:46.762Z,11.14
2023-02-03T05:11:15.016Z,11.06
2023-02-03T05:13:44.614Z,11.04
2023-02-03T05:16:12.713Z,11.02
2023-02-03T05:18:41.551Z,11.15
2023-02-03T05:21:10.716Z,11.13
2023-02-03T05:23:41.753Z,11.36
2023-02-03T05:26:10.224Z,11.26
2023-02-03T05:28:38.554Z,10.81
2023-02-03T05:31:08.517Z,11.07
2023-02-03T05:33:36.696Z,11.05
2023-02-03T05:36:05.086Z,11.27
2023-02-03T05:38:33.270Z,11.24
2023-02-03T05:41:19.393Z,11.13
2023-02-03T05:43:47.581Z,11.00
2023-02-03T05:46:17.438Z,10.85
2023-02-03T05:48:45.615Z,10.93
2023-02-03T05:51:14.924Z,10.91
2023-02-03T05:53:43.281Z,10.82
2023-02-03T05:56:11.486Z,10.59
2023-02-03T05:58:39.598Z,10.94
2023-02-03T06:01:08.012Z,10.80
2023-02-03T06:03:38.125Z,10.95
2023-02-03T06:06:06.310Z,10.80
2023-02-03T06:08:34.580Z,10.48
2023-02-03T06:11:02.961Z,10.73
2023-02-03T06:13:31.463Z,10.75
2023-02-03T06:15:59.749Z,10.83
2023-02-03T06:18:29.749Z,10.88
2023-02-03T06:20:59.307Z,10.86
2023-02-03T06:23:27.939Z,10.89
2023-02-03T06:25:56.799Z,10.48
2023-02-03T06:28:24.895Z,10.40
2023-02-03T06:30:53.445Z,10.16
2023-02-03T06:33:22.488Z,10.24
2023-02-03T06:35:51.109Z,10.30
2023-02-03T06:38:24.885Z,10.47
2023-02-03T06:40:53.930Z,10.37
2023-02-03T06:43:22.536Z,10.45
2023-02-03T06:45:50.637Z,10.49
2023-02-03T06:48:19.154Z,10.36
2023-02-03T06:50:48.838Z,10.16
2023-02-03T06:53:17.601Z,10.35
2023-02-03T06:55:49.478Z,10.33
2023-02-03T06:58:17.455Z,10.19
2023-02-03T07:00:46.205Z,10.12
2023-02-03T07:03:14.827Z,10.30
2023-02-03T07:05:43.702Z,10.20
2023-02-03T07:08:11.781Z,9.81
2023-02-03T07:10:40.053Z,9.78
2023-02-03T07:13:10.063Z,10.19
2023-02-03T07:15:38.207Z,10.10
2023-02-03T07:18:06.406Z,10.09
2023-02-03T07:20:34.452Z,10.21
2023-02-03T07:23:02.617Z,10.10
2023-02-03T07:25:32.168Z,10.25
2023-02-03T07:28:00.266Z,10.32
2023-02-03T07:30:30.896Z,10.00
2023-02-03T07:32:59.144Z,10.00
2023-02-03T07:35:27.527Z,10.08
2023-02-03T07:37:55.702Z,10.27
2023-02-03T07:40:23.904Z,10.21
2023-02-03T07:42:52.151Z,10.32
2023-02-03T07:45:22.690Z,10.36
2023-02-03T07:47:54.727Z,10.49
2023-02-03T07:50:28.269Z,10.24
2023-02-03T07:52:59.755Z,10.13
2023-02-03T07:55:33.860Z,10.08
2023-02-03T07:58:03.416Z,10.16
2023-02-03T08:00:31.664Z,10.35
2023-02-03T08:03:01.668Z,10.36
2023-02-03T08:05:31.361Z,10.53
2023-02-03T08:08:04.654Z,10.22
2023-02-03T08:10:38.039Z,10.29
2023-02-03T08:13:17.612Z,10.52
2023-02-03T08:15:46.724Z,10.48
2023-02-03T08:18:17.193Z,10.67
2023-02-03T08:20:46.051Z,10.58
2023-02-03T08:23:14.164Z,10.46
2023-02-03T08:25:42.469Z,10.74
2023-02-03T08:28:10.771Z,10.74
2023-02-03T08:30:39.526Z,10.91
2023-02-03T08:33:07.708Z,10.75
2023-02-03T08:35:37.095Z,10.68
2023-02-03T08:38:06.089Z,10.71
2023-02-03T08:40:39.193Z,11.14
2023-02-03T08:43:12.278Z,10.56
2023-02-03T08:45:41.317Z,11.16
2023-02-03T08:48:10.779Z,10.97
2023-02-03T08:50:42.935Z,11.05
2023-02-03T08:53:11.049Z,10.91
2023-02-03T08:55:40.622Z,10.68
2023-02-03T08:58:08.838Z,10.91
2023-02-03T09:00:37.136Z,10.52
2023-02-03T09:03:05.454Z,10.68
2023-02-03T09:05:34.754Z,10.65
2023-02-03T09:08:04.911Z,10.71
2023-02-03T09:10:33.099Z,10.69
2023-02-03T09:13:04.330Z,10.77
2023-02-03T09:15:32.567Z,10.82
2023-02-03T09:18:00.693Z,10.79
2023-02-03T09:20:29.541Z,10.91
2023-02-03T09:23:00.861Z,11.08
2023-02-03T09:25:30.227Z,11.08
2023-02-03T09:27:58.317Z,11.20
2023-02-03T09:30:26.990Z,11.12
2023-02-03T09:32:56.816Z,11.17
2023-02-03T09:35:26.978Z,11.25
2023-02-03T09:37:55.166Z,11.31
2023-02-03T09:40:28.778Z,11.31
2023-02-03T09:43:24.104Z,11.24
2023-02-03T09:45:52.348Z,11.15
2023-02-03T09:48:25.342Z,11.29
2023-02-03T09:50:54.724Z,10.70
2023-02-03T09:53:29.364Z,10.96
2023-02-03T09:55:59.437Z,11.08
2023-02-03T09:58:35.825Z,10.90
2023-02-03T10:01:09.437Z,11.00
2023-02-03T10:03:44.234Z,11.14
2023-02-03T10:06:21.150Z,10.92
2023-02-03T10:09:02.437Z,11.21
2023-02-03T10:11:44.965Z,11.32
2023-02-03T10:14:33.937Z,11.30
2023-02-03T10:17:20.088Z,11.12
2023-02-03T10:19:52.251Z,11.16
2023-02-03T10:22:25.930Z,10.90
2023-02-03T10:25:00.343Z,10.78
2023-02-03T10:27:30.213Z,11.10
2023-02-03T10:30:04.746Z,10.80
2023-02-03T10:32:33.938Z,10.73
2023-02-03T10:35:03.064Z,13.57
2023-02-03T10:37:34.309Z,13.81
2023-02-03T10:40:03.630Z,11.12
2023-02-03T10:42:47.423Z,11.72
2023-02-03T10:45:17.119Z,11.44
2023-02-03T10:47:49.477Z,11.01
2023-02-03T10:50:20.513Z,11.23
2023-02-03T10:52:48.878Z,11.05
2023-02-03T10:55:33.152Z,11.41
2023-02-03T10:58:11.876Z,11.45
2023-02-03T11:00:41.639Z,11.50
2023-02-03T11:03:24.361Z,11.76
2023-02-03T11:06:06.251Z,11.53
2023-02-03T11:08:35.750Z,11.67
2023-02-03T11:11:06.338Z,12.01
2023-02-03T11:13:34.778Z,11.94
2023-02-03T11:16:06.994Z,11.39
2023-02-03T11:18:42.714Z,11.84
2023-02-03T11:21:14.185Z,11.60
2023-02-03T11:23:53.381Z,11.67
2023-02-03T11:26:23.956Z,11.78
2023-02-03T11:28:56.505Z,11.97
2023-02-03T11:31:29.585Z,12.13
2023-02-03T11:34:04.539Z,11.83
2023-02-03T11:36:35.194Z,11.60
2023-02-03T11:39:12.141Z,12.23
2023-02-03T11:41:41.420Z,12.08
2023-02-03T11:44:16.615Z,11.88
2023-02-03T11:46:49.753Z,12.55
2023-02-03T11:49:45.412Z,12.13
2023-02-03T11:52:46.876Z,12.22
2023-02-03T11:55:27.040Z,11.93
2023-02-03T11:58:13.118Z,12.22
2023-02-03T12:00:52.100Z,12.29
2023-02-03T12:03:45.303Z,12.25
2023-02-03T12:06:25.575Z,12.78
2023-02-03T12:09:11.703Z,12.30
2023-02-03T12:12:05.438Z,11.86
2023-02-03T12:14:50.541Z,11.93
2023-02-03T12:17:45.830Z,12.55
2023-02-03T12:20:28.437Z,12.32
2023-02-03T12:23:05.098Z,12.18
2023-02-03T12:25:42.296Z,12.26
2023-02-03T12:28:32.930Z,12.46
2023-02-03T12:31:10.045Z,11.91
2023-02-03T12:33:44.508Z,12.48
2023-02-03T12:36:19.128Z,12.49
2023-02-03T12:38:54.463Z,12.53
2023-02-03T12:41:26.746Z,12.88
2023-02-03T12:43:59.741Z,12.47
2023-02-03T12:46:31.880Z,12.52
2023-02-03T12:49:04.248Z,12.33
2023-02-03T12:51:39.971Z,12.57
2023-02-03T12:54:27.172Z,12.25
2023-02-03T12:56:59.322Z,11.81
2023-02-03T12:59:32.714Z,13.12
2023-02-03T13:02:13.798Z,12.80
2023-02-03T13:04:47.905Z,12.66
2023-02-03T13:07:25.766Z,12.74
2023-02-03T13:10:00.036Z,12.87
2023-02-03T13:12:32.629Z,12.38
2023-02-03T13:15:11.609Z,13.11
2023-02-03T13:17:45.719Z,12.32
2023-02-03T13:20:20.175Z,12.61
2023-02-03T13:22:50.475Z,12.55
2023-02-03T13:25:25.706Z,12.56
2023-02-03T13:28:03.783Z,12.70
2023-02-03T13:30:52.487Z,12.62
2023-02-03T13:33:55.594Z,12.74
2023-02-03T13:36:47.756Z,12.82
2023-02-03T13:39:38.096Z,13.30
2023-02-03T13:42:19.574Z,12.42
2023-02-03T13:44:51.669Z,13.11
2023-02-03T13:47:24.243Z,13.28
2023-02-03T13:49:56.804Z,13.35
2023-02-03T13:52:28.258Z,12.50
2023-02-03T13:54:58.771Z,11.94
2023-02-03T13:57:35.558Z,12.80
2023-02-03T14:00:07.208Z,12.43
2023-02-03T14:02:46.688Z,12.75
2023-02-03T14:05:44.731Z,11.99
2023-02-03T14:08:55.119Z,12.16
2023-02-03T14:11:45.510Z,12.21
2023-02-03T14:14:42.399Z,12.12
2023-02-03T14:17:58.527Z,12.47
2023-02-03T14:20:56.119Z,11.82
2023-02-03T14:23:42.215Z,12.48
2023-02-03T14:26:31.517Z,12.00
2023-02-03T14:29:03.028Z,12.52
2023-02-03T14:31:31.620Z,11.96
2023-02-03T14:34:07.847Z,12.24
2023-02-03T14:36:44.271Z,11.83
2023-02-03T14:39:57.914Z,12.28
2023-02-03T14:43:09.518Z,11.50
2023-02-03T14:45:55.927Z,11.89
2023-02-03T14:48:43.962Z,11.93
2023-02-03T14:51:22.619Z,12.13
2023-02-03T14:54:09.276Z,12.11
2023-02-03T14:57:05.719Z,12.07
2023-02-03T14:59:42.449Z,12.10
2023-02-03T15:02:19.126Z,11.75
2023-02-03T15:04:50.361Z,11.91
2023-02-03T15:07:39.418Z,11.89
2023-02-03T15:10:15.988Z,11.27
2023-02-03T15:12:49.805Z,11.72
2023-02-03T15:15:23.218Z,12.01
2023-02-03T15:17:54.409Z,11.12
2023-02-03T15:20:30.493Z,11.83
2023-02-03T15:22:59.018Z,11.72
2023-02-03T15:25:33.036Z,11.38
2023-02-03T15:28:17.064Z,11.65
2023-02-03T15:30:45.618Z,11.71
2023-02-03T15:33:17.792Z,11.49
2023-02-03T15:35:49.423Z,11.92
2023-02-03T15:38:22.024Z,11.71
2023-02-03T15:40:54.609Z,11.27
2023-02-03T15:43:27.394Z,11.20
2023-02-03T15:46:03.436Z,11.58
2023-02-03T15:48:42.210Z,10.94
2023-02-03T15:51:14.670Z,11.68
2023-02-03T15:53:55.204Z,11.38
2023-02-03T15:56:30.619Z,11.46
2023-02-03T15:58:59.868Z,11.44
2023-02-03T16:01:29.227Z,11.21
2023-02-03T16:04:00.397Z,11.42
2023-02-03T16:06:35.922Z,11.16
2023-02-03T16:09:07.010Z,10.99
2023-02-03T16:11:37.182Z,11.09
2023-02-03T16:14:07.855Z,10.41
2023-02-03T16:16:40.094Z,11.38
2023-02-03T16:19:16.001Z,10.87
2023-02-03T16:21:54.881Z,10.53
2023-02-03T16:24:40.740Z,11.32
2023-02-03T16:27:22.455Z,11.43
2023-02-03T16:30:07.742Z,11.64
2023-02-03T16:32:53.653Z,11.44
2023-02-03T16:35:40.705Z,11.06
2023-02-03T16:38:32.693Z,11.16
2023-02-03T16:41:18.536Z,11.14
2023-02-03T16:44:04.692Z,11.21
2023-02-03T16:46:50.024Z,11.19
2023-02-03T16:49:35.741Z,10.63
2023-02-03T16:52:06.514Z,11.26
2023-02-03T16:54:34.455Z,10.94
2023-02-03T16:57:04.033Z,11.00
2023-02-03T16:59:32.096Z,11.08
2023-02-03T17:02:00.220Z,11.11
2023-02-03T17:04:28.394Z,11.10
2023-02-03T17:06:56.707Z,10.82
2023-02-03T17:09:26.142Z,10.74
2023-02-03T17:11:54.323Z,10.98
2023-02-03T17:14:22.325Z,10.82
2023-02-03T17:16:50.694Z,10.73
2023-02-03T17:19:21.270Z,10.68
2023-02-03T17:21:50.493Z,10.52
2023-02-03T17:24:19.601Z,10.95
2023-02-03T17:26:49.160Z,10.59
2023-02-03T17:29:17.310Z,10.91
2023-02-03T17:31:45.206Z,10.80
2023-02-03T17:34:13.379Z,10.88
2023-02-03T17:36:41.289Z,10.52
2023-02-03T17:55:34.019Z,10.61
2023-02-03T17:58:03.988Z,10.48
2023-02-03T18:00:32.477Z,10.43
2023-02-03T18:03:02.383Z,10.57
2023-02-03T18:05:32.491Z,10.61
2023-02-03T18:08:05.964Z,10.46
2023-02-03T18:10:40.252Z,9.95
2023-02-03T18:13:09.857Z,10.43
2023-02-03T18:15:39.497Z,10.67
2023-02-03T18:18:07.996Z,10.45
2023-02-03T18:20:36.197Z,10.20
2023-02-03T18:23:04.761Z,10.32
2023-02-03T18:25:32.707Z,10.10
2023-02-03T18:28:00.952Z,9.98
2023-02-03T18:30:30.477Z,9.96
2023-02-03T18:33:01.975Z,10.07
2023-02-03T18:35:30.261Z,9.63
2023-02-03T18:37:58.350Z,9.41
2023-02-03T18:40:26.567Z,9.56
2023-02-03T18:42:56.276Z,10.03
2023-02-03T18:45:24.358Z,10.05
2023-02-03T18:47:54.018Z,10.04
2023-02-03T18:50:22.163Z,9.63
2023-02-03T18:52:53.965Z,10.22
2023-02-03T18:55:22.011Z,9.98
2023-02-03T18:57:50.193Z,9.68
2023-02-03T19:00:18.369Z,10.07
2023-02-03T19:02:49.684Z,9.63
2023-02-03T19:05:19.075Z,9.62
2023-02-03T19:07:47.086Z,9.61
2023-02-03T19:10:15.234Z,9.73
2023-02-03T19:12:43.232Z,9.71
2023-02-03T19:15:12.124Z,9.39
2023-02-03T19:17:40.265Z,9.37
2023-02-03T19:20:09.972Z,9.52
2023-02-03T19:22:39.331Z,8.94
2023-02-03T19:25:07.867Z,9.28
2023-02-03T19:27:36.235Z,9.24
2023-02-03T19:30:04.349Z,9.03
2023-02-03T19:32:32.578Z,9.33
2023-02-03T19:35:00.461Z,9.08
2023-02-03T19:37:28.568Z,9.24
2023-02-03T19:39:57.854Z,9.07
2023-02-03T19:42:26.008Z,8.78
2023-02-03T19:44:54.102Z,9.02
2023-02-03T19:47:22.174Z,9.07
2023-02-03T19:49:50.292Z,9.24
2023-02-03T19:52:18.318Z,8.77
2023-02-03T19:54:46.480Z,9.42
2023-02-03T19:57:15.790Z,9.33
2023-02-03T19:59:43.811Z,9.69
2023-02-03T20:02:14.629Z,9.84
2023-02-03T20:04:44.184Z,9.30
2023-02-03T20:07:13.338Z,9.73
2023-02-03T20:09:41.304Z,9.60
2023-02-03T20:12:09.808Z,9.48
2023-02-03T20:14:39.320Z,10.12
2023-02-03T20:17:07.793Z,9.26
2023-02-03T20:19:35.871Z,9.64
2023-02-03T20:22:03.900Z,9.89
2023-02-03T20:24:31.888Z,9.62
2023-02-03T20:26:59.819Z,9.83
2023-02-03T20:29:28.062Z,9.88
2023-02-03T20:31:58.615Z,9.52
2023-02-03T20:34:27.490Z,9.34
2023-02-03T20:36:58.520Z,9.63
2023-02-03T20:39:27.134Z,9.41
2023-02-03T20:41:55.650Z,9.16
2023-02-03T20:44:23.523Z,9.83
2023-02-03T20:46:52.919Z,9.93
2023-02-03T20:49:22.447Z,9.76
2023-02-03T20:51:50.985Z,9.95
2023-02-03T20:54:21.240Z,9.74
2023-02-03T20:56:50.306Z,9.74
2023-02-03T20:59:20.374Z,9.82
2023-02-03T21:01:49.225Z,9.90
2023-02-03T21:04:36.363Z,9.82
2023-02-03T21:07:14.077Z,9.50
2023-02-03T21:09:42.132Z,9.25
2023-02-03T21:12:15.740Z,9.48
2023-02-03T21:14:45.982Z,9.46
2023-02-03T21:17:18.238Z,9.92
2023-02-03T21:19:46.228Z,9.69
2023-02-03T21:22:21.874Z,9.84
2023-02-03T21:24:53.017Z,9.70
2023-02-03T21:27:27.436Z,9.48
2023-02-03T21:29:57.587Z,9.79
2023-02-03T21:32:35.277Z,9.43
2023-02-03T21:35:03.407Z,9.77
2023-02-03T21:37:50.962Z,9.88
2023-02-03T21:40:22.718Z,9.74
2023-02-03T21:42:51.920Z,9.96
2023-02-03T21:45:31.004Z,9.86
2023-02-03T21:47:59.790Z,9.91
2023-02-03T21:50:30.622Z,9.32
2023-02-03T21:53:18.843Z,9.47
2023-02-03T21:55:46.895Z,9.52
2023-02-03T21:58:23.763Z,8.59
2023-02-03T22:00:53.506Z,8.48
2023-02-03T22:03:27.250Z,9.05
2023-02-03T22:06:05.904Z,9.08
2023-02-03T22:08:39.093Z,9.00
2023-02-03T22:11:07.078Z,9.48
2023-02-03T22:13:35.650Z,9.77
2023-02-03T22:16:03.941Z,9.55
2023-02-03T22:18:32.424Z,9.44
2023-02-03T22:21:00.592Z,9.44
2023-02-03T22:23:28.520Z,9.70
2023-02-03T22:25:57.864Z,9.51
2023-02-03T22:28:27.019Z,9.29
2023-02-03T22:30:55.218Z,9.88
2023-02-03T22:33:23.089Z,9.69
2023-02-03T22:35:51.045Z,9.34
2023-02-03T22:38:19.023Z,9.96
2023-02-03T22:40:46.996Z,9.52
2023-02-03T22:43:17.133Z,9.99
2023-02-03T22:45:45.294Z,9.56
2023-02-03T22:48:13.262Z,9.36
2023-02-03T22:50:41.454Z,8.96
2023-02-03T22:53:09.540Z,9.23
2023-02-03T22:55:38.628Z,8.95
2023-02-03T22:58:06.670Z,9.29
2023-02-03T23:00:36.025Z,8.89
2023-02-03T23:03:04.952Z,8.73
2023-02-03T23:05:32.855Z,8.91
2023-02-03T23:08:00.975Z,9.42
2023-02-03T23:10:31.876Z,9.45
2023-02-03T23:13:01.474Z,9.45
2023-02-03T23:15:30.050Z,9.34
2023-02-03T23:17:59.490Z,9.31
2023-02-03T23:20:27.415Z,9.29
2023-02-03T23:22:55.399Z,8.97
2023-02-03T23:25:23.487Z,9.21
2023-02-03T23:27:51.627Z,8.80
2023-02-03T23:30:20.067Z,8.69
2023-02-03T23:32:48.087Z,8.39
2023-02-03T23:35:35.204Z,8.62
2023-02-03T23:38:03.183Z,8.75
2023-02-03T23:40:31.441Z,8.53
2023-02-03T23:42:59.587Z,8.69
2023-02-03T23:45:27.707Z,8.59
2023-02-03T23:47:55.629Z,8.30
2023-02-03T23:50:24.874Z,8.84
2023-02-03T23:52:52.757Z,9.09
2023-02-03T23:55:21.940Z,8.82
2023-02-03T23:57:50.207Z,8.82
